Amiret, Minnesota
Current Conditions -  °F | °C
As of 12:53 PM on Tuesday 27 Jan 2015 (Local Time) from KTKC Reporting Station
Overcast Overcast  
Wind Chill: -4°   Ceiling: 500
Heat Index:   Visibility: 10mi
Dew Point:   Wind: 12mph
Humidity: 99%   Direction: 170°S
Pressure: 30.07"   Gusts: NA
Location:  44.2253°N, 95.6512°W
Report Text: KTKC 271853Z AUTO 17010KT 10SM OVC005 01/01 A3007 RMK AO2 T00070005
Loading
Personal Weather Stations






























Interactive Weather Map New forecast layout! Learn more

10-Day Weather Forecast

Advertisements
Track Severe Weather on mobile